sensor_id;sensor_type;location;lat;lon;timestamp;temperature;humidity
3560;DHT22;1794;48.804;9.156;2022-07-17T00:00:53;13.60;5.30
3560;DHT22;1794;48.804;9.156;2022-07-17T00:03:20;13.50;15.30
3560;DHT22;1794;48.804;9.156;2022-07-17T00:05:46;13.50;6.70
3560;DHT22;1794;48.804;9.156;2022-07-17T00:08:14;13.50;13.10
3560;DHT22;1794;48.804;9.156;2022-07-17T00:10:43;13.50;22.50
3560;DHT22;1794;48.804;9.156;2022-07-17T00:13:10;13.50;22.90
3560;DHT22;1794;48.804;9.156;2022-07-17T00:15:37;13.40;26.70
3560;DHT22;1794;48.804;9.156;2022-07-17T00:18:04;13.40;28.40
3560;DHT22;1794;48.804;9.156;2022-07-17T00:20:32;13.40;39.60
3560;DHT22;1794;48.804;9.156;2022-07-17T00:22:59;13.40;45.60
3560;DHT22;1794;48.804;9.156;2022-07-17T00:25:26;13.40;33.70
3560;DHT22;1794;48.804;9.156;2022-07-17T00:27:54;13.40;32.10
3560;DHT22;1794;48.804;9.156;2022-07-17T00:30:20;13.40;33.50
3560;DHT22;1794;48.804;9.156;2022-07-17T00:32:47;13.30;34.40
3560;DHT22;1794;48.804;9.156;2022-07-17T00:35:14;13.30;34.50
3560;DHT22;1794;48.804;9.156;2022-07-17T00:37:42;13.30;38.70
3560;DHT22;1794;48.804;9.156;2022-07-17T00:40:12;13.30;57.00
3560;DHT22;1794;48.804;9.156;2022-07-17T00:42:40;13.20;44.90
3560;DHT22;1794;48.804;9.156;2022-07-17T00:45:10;13.20;53.70
3560;DHT22;1794;48.804;9.156;2022-07-17T00:47:50;13.10;71.50
3560;DHT22;1794;48.804;9.156;2022-07-17T00:50:17;13.00;69.80
3560;DHT22;1794;48.804;9.156;2022-07-17T00:52:44;13.00;70.20
3560;DHT22;1794;48.804;9.156;2022-07-17T00:55:12;12.90;83.80
3560;DHT22;1794;48.804;9.156;2022-07-17T00:57:40;12.90;90.00
3560;DHT22;1794;48.804;9.156;2022-07-17T01:00:11;12.90;91.00
3560;DHT22;1794;48.804;9.156;2022-07-17T01:02:38;12.70;97.40
3560;DHT22;1794;48.804;9.156;2022-07-17T01:05:05;12.80;96.50
3560;DHT22;1794;48.804;9.156;2022-07-17T01:07:32;12.80;95.20
3560;DHT22;1794;48.804;9.156;2022-07-17T01:10:00;12.70;89.80
3560;DHT22;1794;48.804;9.156;2022-07-17T01:12:27;12.80;93.60
3560;DHT22;1794;48.804;9.156;2022-07-17T01:14:55;12.80;95.30
3560;DHT22;1794;48.804;9.156;2022-07-17T01:17:25;12.70;96.40
3560;DHT22;1794;48.804;9.156;2022-07-17T01:19:52;12.60;99.90
3560;DHT22;1794;48.804;9.156;2022-07-17T01:22:20;12.60;99.90
3560;DHT22;1794;48.804;9.156;2022-07-17T01:24:47;12.60;99.90
3560;DHT22;1794;48.804;9.156;2022-07-17T01:27:14;12.60;99.90
3560;DHT22;1794;48.804;9.156;2022-07-17T01:29:41;12.60;99.90
3560;DHT22;1794;48.804;9.156;2022-07-17T01:32:08;12.60;99.90
3560;DHT22;1794;48.804;9.156;2022-07-17T01:34:35;12.50;99.90
3560;DHT22;1794;48.804;9.156;2022-07-17T01:37:01;12.40;99.90
3560;DHT22;1794;48.804;9.156;2022-07-17T01:39:29;12.40;99.90
3560;DHT22;1794;48.804;9.156;2022-07-17T01:42:13;12.30;99.90
3560;DHT22;1794;48.804;9.156;2022-07-17T01:44:40;12.20;99.90
3560;DHT22;1794;48.804;9.156;2022-07-17T01:47:07;12.30;99.90
3560;DHT22;1794;48.804;9.156;2022-07-17T01:49:33;12.30;99.90
3560;DHT22;1794;48.804;9.156;2022-07-17T01:52:00;12.20;99.90
3560;DHT22;1794;48.804;9.156;2022-07-17T01:54:30;12.10;99.90
3560;DHT22;1794;48.804;9.156;2022-07-17T01:56:56;12.20;99.90
3560;DHT22;1794;48.804;9.156;2022-07-17T01:59:23;12.10;99.90
3560;DHT22;1794;48.804;9.156;2022-07-17T02:01:50;12.00;99.90
3560;DHT22;1794;48.804;9.156;2022-07-17T02:04:16;12.00;99.90
3560;DHT22;1794;48.804;9.156;2022-07-17T02:06:43;12.00;99.90
3560;DHT22;1794;48.804;9.156;2022-07-17T02:09:10;11.90;99.90
3560;DHT22;1794;48.804;9.156;2022-07-17T02:11:38;11.90;99.90
3560;DHT22;1794;48.804;9.156;2022-07-17T02:14:05;11.90;99.90
3560;DHT22;1794;48.804;9.156;2022-07-17T02:16:31;11.90;99.90
3560;DHT22;1794;48.804;9.156;2022-07-17T02:18:58;11.80;99.90
3560;DHT22;1794;48.804;9.156;2022-07-17T02:21:25;11.80;99.90
3560;DHT22;1794;48.804;9.156;2022-07-17T02:23:52;11.70;99.90
3560;DHT22;1794;48.804;9.156;2022-07-17T02:26:18;11.70;99.90
3560;DHT22;1794;48.804;9.156;2022-07-17T02:28:46;11.70;99.90
3560;DHT22;1794;48.804;9.156;2022-07-17T02:31:13;11.70;99.90
3560;DHT22;1794;48.804;9.156;2022-07-17T02:33:40;11.70;99.90
3560;DHT22;1794;48.804;9.156;2022-07-17T02:36:07;11.70;99.90
3560;DHT22;1794;48.804;9.156;2022-07-17T02:38:34;11.60;99.90
3560;DHT22;1794;48.804;9.156;2022-07-17T02:41:00;11.60;99.90
3560;DHT22;1794;48.804;9.156;2022-07-17T02:43:27;11.70;99.90
3560;DHT22;1794;48.804;9.156;2022-07-17T02:45:55;11.50;99.90
3560;DHT22;1794;48.804;9.156;2022-07-17T02:48:22;11.40;99.90
3560;DHT22;1794;48.804;9.156;2022-07-17T02:50:49;11.40;99.90
3560;DHT22;1794;48.804;9.156;2022-07-17T02:53:15;11.40;99.90
3560;DHT22;1794;48.804;9.156;2022-07-17T02:55:42;11.40;99.90
3560;DHT22;1794;48.804;9.156;2022-07-17T02:58:09;11.40;99.90
3560;DHT22;1794;48.804;9.156;2022-07-17T03:00:35;11.30;99.90
3560;DHT22;1794;48.804;9.156;2022-07-17T03:03:03;11.20;99.90
3560;DHT22;1794;48.804;9.156;2022-07-17T03:05:30;11.20;99.90
3560;DHT22;1794;48.804;9.156;2022-07-17T03:07:57;11.10;99.90
3560;DHT22;1794;48.804;9.156;2022-07-17T03:10:24;11.00;99.90
3560;DHT22;1794;48.804;9.156;2022-07-17T03:12:51;11.10;99.90
3560;DHT22;1794;48.804;9.156;2022-07-17T03:15:18;11.20;99.90
3560;DHT22;1794;48.804;9.156;2022-07-17T03:17:45;11.20;99.90
3560;DHT22;1794;48.804;9.156;2022-07-17T03:20:13;11.20;99.90
3560;DHT22;1794;48.804;9.156;2022-07-17T03:22:39;11.20;99.90
3560;DHT22;1794;48.804;9.156;2022-07-17T03:25:08;11.20;99.90
3560;DHT22;1794;48.804;9.156;2022-07-17T03:27:35;11.30;99.90
3560;DHT22;1794;48.804;9.156;2022-07-17T03:30:01;11.30;99.90
3560;DHT22;1794;48.804;9.156;2022-07-17T03:32:28;11.20;99.90
3560;DHT22;1794;48.804;9.156;2022-07-17T03:34:55;11.20;99.90
3560;DHT22;1794;48.804;9.156;2022-07-17T03:37:23;11.20;99.90
3560;DHT22;1794;48.804;9.156;2022-07-17T03:39:50;11.10;99.90
3560;DHT22;1794;48.804;9.156;2022-07-17T03:42:16;11.10;99.90
3560;DHT22;1794;48.804;9.156;2022-07-17T03:44:43;11.10;99.90
3560;DHT22;1794;48.804;9.156;2022-07-17T03:47:10;11.20;99.90
3560;DHT22;1794;48.804;9.156;2022-07-17T03:49:36;11.20;99.90
3560;DHT22;1794;48.804;9.156;2022-07-17T03:52:04;11.10;99.90
3560;DHT22;1794;48.804;9.156;2022-07-17T03:54:32;11.10;99.90
3560;DHT22;1794;48.804;9.156;2022-07-17T03:56:59;11.10;99.90
3560;DHT22;1794;48.804;9.156;2022-07-17T03:59:25;11.00;99.90
3560;DHT22;1794;48.804;9.156;2022-07-17T04:01:53;10.90;99.90
3560;DHT22;1794;48.804;9.156;2022-07-17T04:04:21;10.90;99.90
3560;DHT22;1794;48.804;9.156;2022-07-17T04:06:47;11.00;99.90
3560;DHT22;1794;48.804;9.156;2022-07-17T04:09:14;11.00;99.90
3560;DHT22;1794;48.804;9.156;2022-07-17T04:11:42;11.00;99.90
3560;DHT22;1794;48.804;9.156;2022-07-17T04:14:09;11.00;99.90
3560;DHT22;1794;48.804;9.156;2022-07-17T04:16:35;10.90;99.90
3560;DHT22;1794;48.804;9.156;2022-07-17T04:19:02;10.90;99.90
3560;DHT22;1794;48.804;9.156;2022-07-17T04:21:29;10.90;99.90
3560;DHT22;1794;48.804;9.156;2022-07-17T04:23:56;11.00;99.90
3560;DHT22;1794;48.804;9.156;2022-07-17T04:26:22;11.00;99.90
3560;DHT22;1794;48.804;9.156;2022-07-17T04:28:50;11.00;99.90
3560;DHT22;1794;48.804;9.156;2022-07-17T04:31:17;11.10;99.90
3560;DHT22;1794;48.804;9.156;2022-07-17T04:33:44;11.20;99.90
3560;DHT22;1794;48.804;9.156;2022-07-17T04:36:11;11.10;99.90
3560;DHT22;1794;48.804;9.156;2022-07-17T04:38:37;11.00;99.90
3560;DHT22;1794;48.804;9.156;2022-07-17T04:41:04;11.10;99.90
3560;DHT22;1794;48.804;9.156;2022-07-17T04:43:31;11.20;99.90
3560;DHT22;1794;48.804;9.156;2022-07-17T04:45:59;11.30;99.90
3560;DHT22;1794;48.804;9.156;2022-07-17T04:48:26;11.40;99.90
3560;DHT22;1794;48.804;9.156;2022-07-17T04:50:53;11.30;99.90
3560;DHT22;1794;48.804;9.156;2022-07-17T04:53:19;11.40;99.90
3560;DHT22;1794;48.804;9.156;2022-07-17T04:55:46;11.60;99.90
3560;DHT22;1794;48.804;9.156;2022-07-17T04:58:13;11.80;99.90
3560;DHT22;1794;48.804;9.156;2022-07-17T05:00:39;12.20;99.90
3560;DHT22;1794;48.804;9.156;2022-07-17T05:03:07;12.50;99.90
3560;DHT22;1794;48.804;9.156;2022-07-17T05:05:34;12.70;99.90
3560;DHT22;1794;48.804;9.156;2022-07-17T05:08:02;13.00;99.90
3560;DHT22;1794;48.804;9.156;2022-07-17T05:10:29;13.20;99.90
3560;DHT22;1794;48.804;9.156;2022-07-17T05:12:55;13.50;94.30
3560;DHT22;1794;48.804;9.156;2022-07-17T05:15:22;13.70;87.50
3560;DHT22;1794;48.804;9.156;2022-07-17T05:17:49;14.00;48.80
3560;DHT22;1794;48.804;9.156;2022-07-17T05:20:17;14.40;21.80
3560;DHT22;1794;48.804;9.156;2022-07-17T05:22:43;14.70;1.00
3560;DHT22;1794;48.804;9.156;2022-07-17T05:25:10;14.90;1.00
3560;DHT22;1794;48.804;9.156;2022-07-17T05:27:37;15.40;1.00
3560;DHT22;1794;48.804;9.156;2022-07-17T05:30:04;15.90;1.00
3560;DHT22;1794;48.804;9.156;2022-07-17T05:32:31;16.20;1.00
3560;DHT22;1794;48.804;9.156;2022-07-17T05:34:58;16.50;1.00
3560;DHT22;1794;48.804;9.156;2022-07-17T05:37:26;16.90;1.00
3560;DHT22;1794;48.804;9.156;2022-07-17T05:39:52;17.10;1.00
3560;DHT22;1794;48.804;9.156;2022-07-17T05:42:19;17.30;1.00
3560;DHT22;1794;48.804;9.156;2022-07-17T05:44:46;17.50;1.00
3560;DHT22;1794;48.804;9.156;2022-07-17T05:47:12;17.80;1.00
3560;DHT22;1794;48.804;9.156;2022-07-17T05:49:39;18.20;1.00
3560;DHT22;1794;48.804;9.156;2022-07-17T05:52:06;18.40;1.00
3560;DHT22;1794;48.804;9.156;2022-07-17T05:54:34;18.40;1.00
3560;DHT22;1794;48.804;9.156;2022-07-17T05:57:01;18.50;1.00
3560;DHT22;1794;48.804;9.156;2022-07-17T05:59:28;19.20;99.90
3560;DHT22;1794;48.804;9.156;2022-07-17T06:01:55;19.00;99.90
3560;DHT22;1794;48.804;9.156;2022-07-17T06:04:21;19.00;99.90
3560;DHT22;1794;48.804;9.156;2022-07-17T06:06:48;19.60;99.90
3560;DHT22;1794;48.804;9.156;2022-07-17T06:09:15;20.40;51.30
3560;DHT22;1794;48.804;9.156;2022-07-17T06:11:43;19.90;99.90
3560;DHT22;1794;48.804;9.156;2022-07-17T06:14:10;19.70;1.00
3560;DHT22;1794;48.804;9.156;2022-07-17T06:16:36;19.30;99.90
3560;DHT22;1794;48.804;9.156;2022-07-17T06:19:03;19.80;99.90
3560;DHT22;1794;48.804;9.156;2022-07-17T06:21:30;20.30;99.90
3560;DHT22;1794;48.804;9.156;2022-07-17T06:23:56;20.80;99.90
3560;DHT22;1794;48.804;9.156;2022-07-17T06:26:23;20.60;99.90
3560;DHT22;1794;48.804;9.156;2022-07-17T06:28:51;20.00;99.90
3560;DHT22;1794;48.804;9.156;2022-07-17T06:31:18;19.90;1.00
3560;DHT22;1794;48.804;9.156;2022-07-17T06:33:46;20.80;35.60
3560;DHT22;1794;48.804;9.156;2022-07-17T06:36:13;21.30;1.00
3560;DHT22;1794;48.804;9.156;2022-07-17T06:38:40;22.50;22.10
3560;DHT22;1794;48.804;9.156;2022-07-17T06:41:07;23.40;1.00
3560;DHT22;1794;48.804;9.156;2022-07-17T06:43:33;23.90;1.00
3560;DHT22;1794;48.804;9.156;2022-07-17T06:46:01;24.00;1.00
3560;DHT22;1794;48.804;9.156;2022-07-17T06:48:28;24.40;1.00
3560;DHT22;1794;48.804;9.156;2022-07-17T06:50:55;24.20;1.00
3560;DHT22;1794;48.804;9.156;2022-07-17T06:53:22;24.40;1.00
3560;DHT22;1794;48.804;9.156;2022-07-17T06:55:48;24.50;1.00
3560;DHT22;1794;48.804;9.156;2022-07-17T06:58:15;23.30;1.00
3560;DHT22;1794;48.804;9.156;2022-07-17T07:00:42;23.00;1.00
3560;DHT22;1794;48.804;9.156;2022-07-17T07:03:10;24.30;1.00
3560;DHT22;1794;48.804;9.156;2022-07-17T07:05:36;24.50;1.00
3560;DHT22;1794;48.804;9.156;2022-07-17T07:08:04;24.70;1.00
3560;DHT22;1794;48.804;9.156;2022-07-17T07:10:30;25.30;1.00
3560;DHT22;1794;48.804;9.156;2022-07-17T07:12:57;25.30;1.00
3560;DHT22;1794;48.804;9.156;2022-07-17T07:15:24;25.20;1.00
3560;DHT22;1794;48.804;9.156;2022-07-17T07:17:51;25.40;1.00
3560;DHT22;1794;48.804;9.156;2022-07-17T07:20:19;25.90;1.00
3560;DHT22;1794;48.804;9.156;2022-07-17T07:22:46;25.90;1.00
3560;DHT22;1794;48.804;9.156;2022-07-17T07:25:13;26.00;1.00
3560;DHT22;1794;48.804;9.156;2022-07-17T07:27:39;26.00;99.90
3560;DHT22;1794;48.804;9.156;2022-07-17T07:30:07;26.00;99.90
3560;DHT22;1794;48.804;9.156;2022-07-17T07:32:35;26.10;99.90
3560;DHT22;1794;48.804;9.156;2022-07-17T07:35:03;24.40;99.90
3560;DHT22;1794;48.804;9.156;2022-07-17T07:37:31;25.10;99.90
3560;DHT22;1794;48.804;9.156;2022-07-17T07:39:58;25.60;99.90
3560;DHT22;1794;48.804;9.156;2022-07-17T07:42:24;24.50;99.90
3560;DHT22;1794;48.804;9.156;2022-07-17T07:44:51;24.50;99.90
3560;DHT22;1794;48.804;9.156;2022-07-17T07:47:18;25.60;99.90
3560;DHT22;1794;48.804;9.156;2022-07-17T07:49:45;26.50;99.90
3560;DHT22;1794;48.804;9.156;2022-07-17T07:52:12;27.20;99.90
3560;DHT22;1794;48.804;9.156;2022-07-17T07:54:40;27.60;99.90
3560;DHT22;1794;48.804;9.156;2022-07-17T07:57:07;27.20;99.90
3560;DHT22;1794;48.804;9.156;2022-07-17T07:59:33;25.20;99.90
3560;DHT22;1794;48.804;9.156;2022-07-17T08:02:00;24.40;99.90
3560;DHT22;1794;48.804;9.156;2022-07-17T08:04:27;25.30;99.90
3560;DHT22;1794;48.804;9.156;2022-07-17T08:06:55;26.70;99.90
3560;DHT22;1794;48.804;9.156;2022-07-17T08:09:22;27.50;99.90
3560;DHT22;1794;48.804;9.156;2022-07-17T08:11:50;24.50;99.90
3560;DHT22;1794;48.804;9.156;2022-07-17T08:14:17;25.60;99.90
3560;DHT22;1794;48.804;9.156;2022-07-17T08:16:44;26.90;99.90
3560;DHT22;1794;48.804;9.156;2022-07-17T08:19:10;27.50;99.90
3560;DHT22;1794;48.804;9.156;2022-07-17T08:21:37;28.00;99.90
3560;DHT22;1794;48.804;9.156;2022-07-17T08:24:04;28.30;99.90
3560;DHT22;1794;48.804;9.156;2022-07-17T08:26:31;28.10;99.90
3560;DHT22;1794;48.804;9.156;2022-07-17T08:28:59;28.50;99.90
3560;DHT22;1794;48.804;9.156;2022-07-17T08:31:26;28.90;99.90
3560;DHT22;1794;48.804;9.156;2022-07-17T08:33:53;28.70;99.90
3560;DHT22;1794;48.804;9.156;2022-07-17T08:36:20;29.10;99.90
3560;DHT22;1794;48.804;9.156;2022-07-17T08:38:46;27.70;99.90
3560;DHT22;1794;48.804;9.156;2022-07-17T08:41:14;29.00;99.90
3560;DHT22;1794;48.804;9.156;2022-07-17T08:43:42;29.70;99.90
3560;DHT22;1794;48.804;9.156;2022-07-17T08:46:12;29.80;99.90
3560;DHT22;1794;48.804;9.156;2022-07-17T08:48:40;30.40;99.90
3560;DHT22;1794;48.804;9.156;2022-07-17T08:51:07;31.00;99.90
3560;DHT22;1794;48.804;9.156;2022-07-17T08:53:34;31.20;99.90
3560;DHT22;1794;48.804;9.156;2022-07-17T08:56:01;31.60;99.90
3560;DHT22;1794;48.804;9.156;2022-07-17T08:58:28;30.30;99.90
3560;DHT22;1794;48.804;9.156;2022-07-17T09:00:54;30.50;99.90
3560;DHT22;1794;48.804;9.156;2022-07-17T09:03:23;31.00;99.90
3560;DHT22;1794;48.804;9.156;2022-07-17T09:05:50;30.90;99.90
3560;DHT22;1794;48.804;9.156;2022-07-17T09:08:18;32.50;99.90
3560;DHT22;1794;48.804;9.156;2022-07-17T09:10:47;33.30;99.90
3560;DHT22;1794;48.804;9.156;2022-07-17T09:13:16;34.00;99.90
3560;DHT22;1794;48.804;9.156;2022-07-17T09:15:44;34.40;99.90
3560;DHT22;1794;48.804;9.156;2022-07-17T09:18:11;33.80;99.90
3560;DHT22;1794;48.804;9.156;2022-07-17T09:20:43;33.40;99.90
3560;DHT22;1794;48.804;9.156;2022-07-17T09:23:11;33.50;99.90
3560;DHT22;1794;48.804;9.156;2022-07-17T09:25:39;33.70;99.90
3560;DHT22;1794;48.804;9.156;2022-07-17T09:28:07;33.20;99.90
3560;DHT22;1794;48.804;9.156;2022-07-17T09:30:36;32.60;99.90
3560;DHT22;1794;48.804;9.156;2022-07-17T09:33:06;32.80;99.90
3560;DHT22;1794;48.804;9.156;2022-07-17T09:35:33;33.90;99.90
3560;DHT22;1794;48.804;9.156;2022-07-17T09:38:01;34.50;99.90
3560;DHT22;1794;48.804;9.156;2022-07-17T09:40:28;33.80;99.90
3560;DHT22;1794;48.804;9.156;2022-07-17T09:43:12;33.40;99.90
3560;DHT22;1794;48.804;9.156;2022-07-17T09:45:39;32.10;99.90
3560;DHT22;1794;48.804;9.156;2022-07-17T09:48:08;29.30;99.90
3560;DHT22;1794;48.804;9.156;2022-07-17T09:50:36;31.90;99.90
3560;DHT22;1794;48.804;9.156;2022-07-17T09:53:05;30.60;99.90
3560;DHT22;1794;48.804;9.156;2022-07-17T09:55:33;32.80;99.90
3560;DHT22;1794;48.804;9.156;2022-07-17T09:58:02;34.50;99.90
3560;DHT22;1794;48.804;9.156;2022-07-17T10:00:29;35.50;99.90
3560;DHT22;1794;48.804;9.156;2022-07-17T10:02:57;34.80;99.90
3560;DHT22;1794;48.804;9.156;2022-07-17T10:05:24;35.10;99.90
3560;DHT22;1794;48.804;9.156;2022-07-17T10:07:51;36.40;99.90
3560;DHT22;1794;48.804;9.156;2022-07-17T10:10:19;36.10;99.90
3560;DHT22;1794;48.804;9.156;2022-07-17T10:12:48;36.00;99.90
3560;DHT22;1794;48.804;9.156;2022-07-17T10:15:16;36.00;99.90
3560;DHT22;1794;48.804;9.156;2022-07-17T10:17:43;35.20;99.90
3560;DHT22;1794;48.804;9.156;2022-07-17T10:20:10;35.40;99.90
3560;DHT22;1794;48.804;9.156;2022-07-17T10:22:43;36.40;99.90
3560;DHT22;1794;48.804;9.156;2022-07-17T10:25:13;36.60;99.90
3560;DHT22;1794;48.804;9.156;2022-07-17T10:27:47;37.70;99.90
3560;DHT22;1794;48.804;9.156;2022-07-17T10:30:23;37.80;99.90
3560;DHT22;1794;48.804;9.156;2022-07-17T10:32:56;39.00;99.90
3560;DHT22;1794;48.804;9.156;2022-07-17T10:35:24;38.10;99.90
3560;DHT22;1794;48.804;9.156;2022-07-17T10:37:51;36.60;99.90
3560;DHT22;1794;48.804;9.156;2022-07-17T10:40:20;36.20;99.90
3560;DHT22;1794;48.804;9.156;2022-07-17T10:42:53;36.50;99.90
3560;DHT22;1794;48.804;9.156;2022-07-17T10:45:23;37.10;99.90
3560;DHT22;1794;48.804;9.156;2022-07-17T10:47:52;34.60;99.90
3560;DHT22;1794;48.804;9.156;2022-07-17T10:50:22;35.40;99.90
3560;DHT22;1794;48.804;9.156;2022-07-17T10:53:09;35.50;99.90
3560;DHT22;1794;48.804;9.156;2022-07-17T10:55:38;30.70;99.90
3560;DHT22;1794;48.804;9.156;2022-07-17T10:58:15;33.40;99.90
3560;DHT22;1794;48.804;9.156;2022-07-17T11:00:43;34.70;99.90
3560;DHT22;1794;48.804;9.156;2022-07-17T11:03:10;36.20;99.90
3560;DHT22;1794;48.804;9.156;2022-07-17T11:05:37;37.10;99.90
3560;DHT22;1794;48.804;9.156;2022-07-17T11:08:04;37.50;99.90
3560;DHT22;1794;48.804;9.156;2022-07-17T11:10:35;37.70;99.90
3560;DHT22;1794;48.804;9.156;2022-07-17T11:13:10;36.90;99.90
3560;DHT22;1794;48.804;9.156;2022-07-17T11:15:40;37.00;99.90
3560;DHT22;1794;48.804;9.156;2022-07-17T11:18:11;37.40;99.90
3560;DHT22;1794;48.804;9.156;2022-07-17T11:20:49;38.00;99.90
3560;DHT22;1794;48.804;9.156;2022-07-17T11:23:17;38.70;99.90
3560;DHT22;1794;48.804;9.156;2022-07-17T11:25:55;38.50;99.90
3560;DHT22;1794;48.804;9.156;2022-07-17T11:28:34;35.70;99.90
3560;DHT22;1794;48.804;9.156;2022-07-17T11:31:04;33.20;99.90
3560;DHT22;1794;48.804;9.156;2022-07-17T11:33:31;35.50;99.90
3560;DHT22;1794;48.804;9.156;2022-07-17T11:35:58;35.30;99.90
3560;DHT22;1794;48.804;9.156;2022-07-17T11:38:27;36.40;99.90
3560;DHT22;1794;48.804;9.156;2022-07-17T11:40:55;35.70;99.90
3560;DHT22;1794;48.804;9.156;2022-07-17T11:43:23;37.10;99.90
3560;DHT22;1794;48.804;9.156;2022-07-17T11:45:50;34.20;99.90
3560;DHT22;1794;48.804;9.156;2022-07-17T11:48:18;32.30;99.90
3560;DHT22;1794;48.804;9.156;2022-07-17T11:50:55;34.60;99.90
3560;DHT22;1794;48.804;9.156;2022-07-17T11:53:32;36.60;99.90
3560;DHT22;1794;48.804;9.156;2022-07-17T11:55:59;35.50;99.90
3560;DHT22;1794;48.804;9.156;2022-07-17T11:58:27;33.10;99.90
3560;DHT22;1794;48.804;9.156;2022-07-17T12:01:01;32.30;99.90
3560;DHT22;1794;48.804;9.156;2022-07-17T12:03:30;34.20;99.90
3560;DHT22;1794;48.804;9.156;2022-07-17T12:05:57;28.50;99.90
3560;DHT22;1794;48.804;9.156;2022-07-17T12:08:23;29.10;99.90
3560;DHT22;1794;48.804;9.156;2022-07-17T12:10:59;33.20;99.90
3560;DHT22;1794;48.804;9.156;2022-07-17T12:13:37;36.00;99.90
3560;DHT22;1794;48.804;9.156;2022-07-17T12:16:18;36.80;99.90
3560;DHT22;1794;48.804;9.156;2022-07-17T12:19:00;35.90;99.90
3560;DHT22;1794;48.804;9.156;2022-07-17T12:21:29;36.00;99.90
3560;DHT22;1794;48.804;9.156;2022-07-17T12:23:59;36.30;99.90
3560;DHT22;1794;48.804;9.156;2022-07-17T12:26:26;37.00;99.90
3560;DHT22;1794;48.804;9.156;2022-07-17T12:28:53;37.00;99.90
3560;DHT22;1794;48.804;9.156;2022-07-17T12:31:20;36.20;99.90
3560;DHT22;1794;48.804;9.156;2022-07-17T12:33:50;35.70;99.90
3560;DHT22;1794;48.804;9.156;2022-07-17T12:36:19;36.20;99.90
3560;DHT22;1794;48.804;9.156;2022-07-17T12:38:46;35.10;99.90
3560;DHT22;1794;48.804;9.156;2022-07-17T12:41:13;33.80;99.90
3560;DHT22;1794;48.804;9.156;2022-07-17T12:43:40;33.50;99.90
3560;DHT22;1794;48.804;9.156;2022-07-17T12:46:07;33.20;99.90
3560;DHT22;1794;48.804;9.156;2022-07-17T12:48:33;32.30;99.90
3560;DHT22;1794;48.804;9.156;2022-07-17T12:51:02;32.00;99.90
3560;DHT22;1794;48.804;9.156;2022-07-17T12:53:30;31.70;99.90
3560;DHT22;1794;48.804;9.156;2022-07-17T12:55:57;31.10;99.90
3560;DHT22;1794;48.804;9.156;2022-07-17T12:58:24;31.20;99.90
3560;DHT22;1794;48.804;9.156;2022-07-17T13:00:50;31.30;99.90
3560;DHT22;1794;48.804;9.156;2022-07-17T13:03:17;30.80;99.90
3560;DHT22;1794;48.804;9.156;2022-07-17T13:05:44;30.30;99.90
3560;DHT22;1794;48.804;9.156;2022-07-17T13:08:10;30.60;99.90
3560;DHT22;1794;48.804;9.156;2022-07-17T13:10:39;30.40;99.90
3560;DHT22;1794;48.804;9.156;2022-07-17T13:13:06;28.90;99.90
3560;DHT22;1794;48.804;9.156;2022-07-17T13:15:32;27.90;99.90
3560;DHT22;1794;48.804;9.156;2022-07-17T13:17:59;27.70;99.90
3560;DHT22;1794;48.804;9.156;2022-07-17T13:20:26;28.30;99.90
3560;DHT22;1794;48.804;9.156;2022-07-17T13:22:53;28.90;99.90
3560;DHT22;1794;48.804;9.156;2022-07-17T13:25:20;29.70;99.90
3560;DHT22;1794;48.804;9.156;2022-07-17T13:27:48;30.10;99.90
3560;DHT22;1794;48.804;9.156;2022-07-17T13:30:15;30.20;99.90
3560;DHT22;1794;48.804;9.156;2022-07-17T13:32:41;30.30;99.90
3560;DHT22;1794;48.804;9.156;2022-07-17T13:35:08;30.30;99.90
3560;DHT22;1794;48.804;9.156;2022-07-17T13:37:35;30.40;99.90
3560;DHT22;1794;48.804;9.156;2022-07-17T13:40:04;30.20;99.90
3560;DHT22;1794;48.804;9.156;2022-07-17T13:42:31;30.30;99.90
3560;DHT22;1794;48.804;9.156;2022-07-17T13:44:59;30.30;99.90
3560;DHT22;1794;48.804;9.156;2022-07-17T13:47:26;30.60;99.90
3560;DHT22;1794;48.804;9.156;2022-07-17T13:49:53;30.10;99.90
3560;DHT22;1794;48.804;9.156;2022-07-17T13:52:19;29.40;99.90
3560;DHT22;1794;48.804;9.156;2022-07-17T13:54:46;28.50;99.90
3560;DHT22;1794;48.804;9.156;2022-07-17T13:57:13;29.60;99.90
3560;DHT22;1794;48.804;9.156;2022-07-17T13:59:40;29.90;99.90
3560;DHT22;1794;48.804;9.156;2022-07-17T14:02:08;28.60;99.90
3560;DHT22;1794;48.804;9.156;2022-07-17T14:04:35;29.20;99.90
3560;DHT22;1794;48.804;9.156;2022-07-17T14:07:02;29.90;99.90
3560;DHT22;1794;48.804;9.156;2022-07-17T14:09:29;29.90;99.90
3560;DHT22;1794;48.804;9.156;2022-07-17T14:11:55;29.60;99.90
3560;DHT22;1794;48.804;9.156;2022-07-17T14:14:22;29.70;99.90
3560;DHT22;1794;48.804;9.156;2022-07-17T14:16:49;30.00;99.90
3560;DHT22;1794;48.804;9.156;2022-07-17T14:19:17;30.50;99.90
3560;DHT22;1794;48.804;9.156;2022-07-17T14:21:43;29.40;99.90
3560;DHT22;1794;48.804;9.156;2022-07-17T14:24:10;29.80;99.90
3560;DHT22;1794;48.804;9.156;2022-07-17T14:26:37;29.20;99.90
3560;DHT22;1794;48.804;9.156;2022-07-17T14:29:04;29.50;99.90
3560;DHT22;1794;48.804;9.156;2022-07-17T14:31:31;29.80;99.90
3560;DHT22;1794;48.804;9.156;2022-07-17T14:33:59;30.00;99.90
3560;DHT22;1794;48.804;9.156;2022-07-17T14:36:27;29.80;99.90
3560;DHT22;1794;48.804;9.156;2022-07-17T14:38:54;29.70;99.90
3560;DHT22;1794;48.804;9.156;2022-07-17T14:41:20;29.90;99.90
3560;DHT22;1794;48.804;9.156;2022-07-17T14:43:47;29.80;99.90
3560;DHT22;1794;48.804;9.156;2022-07-17T14:46:14;29.60;99.90
3560;DHT22;1794;48.804;9.156;2022-07-17T14:48:41;29.70;99.90
3560;DHT22;1794;48.804;9.156;2022-07-17T14:51:09;29.60;99.90
3560;DHT22;1794;48.804;9.156;2022-07-17T14:53:37;29.60;99.90
3560;DHT22;1794;48.804;9.156;2022-07-17T14:56:04;29.70;99.90
3560;DHT22;1794;48.804;9.156;2022-07-17T14:58:30;29.70;99.90
3560;DHT22;1794;48.804;9.156;2022-07-17T15:00:57;29.20;99.90
3560;DHT22;1794;48.804;9.156;2022-07-17T15:03:24;29.50;99.90
3560;DHT22;1794;48.804;9.156;2022-07-17T15:05:50;29.70;99.90
3560;DHT22;1794;48.804;9.156;2022-07-17T15:08:17;29.90;99.90
3560;DHT22;1794;48.804;9.156;2022-07-17T15:10:45;29.30;99.90
3560;DHT22;1794;48.804;9.156;2022-07-17T15:13:12;29.30;99.90
3560;DHT22;1794;48.804;9.156;2022-07-17T15:15:38;29.30;99.90
3560;DHT22;1794;48.804;9.156;2022-07-17T15:18:05;29.50;99.90
3560;DHT22;1794;48.804;9.156;2022-07-17T15:20:32;29.50;99.90
3560;DHT22;1794;48.804;9.156;2022-07-17T15:22:58;28.90;99.90
3560;DHT22;1794;48.804;9.156;2022-07-17T15:25:25;29.30;99.90
3560;DHT22;1794;48.804;9.156;2022-07-17T15:27:53;29.40;99.90
3560;DHT22;1794;48.804;9.156;2022-07-17T15:30:20;29.60;99.90
3560;DHT22;1794;48.804;9.156;2022-07-17T15:32:47;29.60;99.90
3560;DHT22;1794;48.804;9.156;2022-07-17T15:35:13;29.40;99.90
3560;DHT22;1794;48.804;9.156;2022-07-17T15:37:40;29.40;99.90
3560;DHT22;1794;48.804;9.156;2022-07-17T15:40:08;29.50;99.90
3560;DHT22;1794;48.804;9.156;2022-07-17T15:42:35;29.50;99.90
3560;DHT22;1794;48.804;9.156;2022-07-17T15:45:04;29.40;99.90
3560;DHT22;1794;48.804;9.156;2022-07-17T15:47:30;29.60;99.90
3560;DHT22;1794;48.804;9.156;2022-07-17T15:49:57;29.60;99.90
3560;DHT22;1794;48.804;9.156;2022-07-17T15:52:24;29.70;99.90
3560;DHT22;1794;48.804;9.156;2022-07-17T15:54:50;29.60;99.90
3560;DHT22;1794;48.804;9.156;2022-07-17T15:57:17;29.60;99.90
3560;DHT22;1794;48.804;9.156;2022-07-17T15:59:44;29.30;99.90
3560;DHT22;1794;48.804;9.156;2022-07-17T16:02:12;29.30;99.90
3560;DHT22;1794;48.804;9.156;2022-07-17T16:04:38;29.20;99.90